sensor_id;sensor_type;location;lat;lon;timestamp;P1;durP1;ratioP1;P2;durP2;ratioP2
18808;SDS011;9532;54.322;10.116;2022-12-11T00:01:41;2.60;;;1.93;;
18808;SDS011;9532;54.322;10.116;2022-12-11T00:04:08;2.63;;;1.97;;
18808;SDS011;9532;54.322;10.116;2022-12-11T00:06:36;2.17;;;1.73;;
18808;SDS011;9532;54.322;10.116;2022-12-11T00:09:03;2.90;;;1.77;;
18808;SDS011;9532;54.322;10.116;2022-12-11T00:11:30;4.60;;;2.10;;
18808;SDS011;9532;54.322;10.116;2022-12-11T00:13:57;2.00;;;1.67;;
18808;SDS011;9532;54.322;10.116;2022-12-11T00:16:24;2.67;;;2.00;;
18808;SDS011;9532;54.322;10.116;2022-12-11T00:18:53;2.30;;;1.83;;
18808;SDS011;9532;54.322;10.116;2022-12-11T00:21:21;5.00;;;1.70;;
18808;SDS011;9532;54.322;10.116;2022-12-11T00:23:48;3.30;;;2.40;;
18808;SDS011;9532;54.322;10.116;2022-12-11T00:26:15;3.17;;;2.40;;
18808;SDS011;9532;54.322;10.116;2022-12-11T00:28:43;4.97;;;2.80;;
18808;SDS011;9532;54.322;10.116;2022-12-11T00:31:13;6.70;;;2.20;;
18808;SDS011;9532;54.322;10.116;2022-12-11T00:33:41;4.83;;;2.57;;
18808;SDS011;9532;54.322;10.116;2022-12-11T00:36:11;3.33;;;2.50;;
18808;SDS011;9532;54.322;10.116;2022-12-11T00:38:39;3.93;;;2.77;;
18808;SDS011;9532;54.322;10.116;2022-12-11T00:41:07;3.03;;;2.60;;
18808;SDS011;9532;54.322;10.116;2022-12-11T00:43:35;3.93;;;2.90;;
18808;SDS011;9532;54.322;10.116;2022-12-11T00:46:03;3.63;;;2.60;;
18808;SDS011;9532;54.322;10.116;2022-12-11T00:48:30;3.70;;;2.97;;
18808;SDS011;9532;54.322;10.116;2022-12-11T00:50:57;4.23;;;2.90;;
18808;SDS011;9532;54.322;10.116;2022-12-11T00:53:26;5.13;;;3.50;;
18808;SDS011;9532;54.322;10.116;2022-12-11T00:55:54;4.77;;;2.40;;
18808;SDS011;9532;54.322;10.116;2022-12-11T00:58:22;4.57;;;3.00;;
18808;SDS011;9532;54.322;10.116;2022-12-11T01:00:49;4.67;;;2.90;;
18808;SDS011;9532;54.322;10.116;2022-12-11T01:03:17;3.83;;;3.00;;
18808;SDS011;9532;54.322;10.116;2022-12-11T01:05:51;3.43;;;2.60;;
18808;SDS011;9532;54.322;10.116;2022-12-11T01:08:19;3.57;;;3.00;;
18808;SDS011;9532;54.322;10.116;2022-12-11T01:10:49;4.37;;;3.07;;
18808;SDS011;9532;54.322;10.116;2022-12-11T01:13:15;5.13;;;3.30;;
18808;SDS011;9532;54.322;10.116;2022-12-11T01:15:43;3.43;;;2.83;;
18808;SDS011;9532;54.322;10.116;2022-12-11T01:18:11;4.43;;;3.33;;
18808;SDS011;9532;54.322;10.116;2022-12-11T01:20:40;4.07;;;3.20;;
18808;SDS011;9532;54.322;10.116;2022-12-11T01:23:09;4.43;;;3.20;;
18808;SDS011;9532;54.322;10.116;2022-12-11T01:25:38;3.20;;;2.80;;
18808;SDS011;9532;54.322;10.116;2022-12-11T01:28:07;3.17;;;2.70;;
18808;SDS011;9532;54.322;10.116;2022-12-11T01:30:35;4.50;;;3.33;;
18808;SDS011;9532;54.322;10.116;2022-12-11T01:33:03;3.87;;;3.13;;
18808;SDS011;9532;54.322;10.116;2022-12-11T01:35:30;3.87;;;2.93;;
18808;SDS011;9532;54.322;10.116;2022-12-11T01:37:58;3.90;;;3.17;;
18808;SDS011;9532;54.322;10.116;2022-12-11T01:40:25;3.53;;;3.07;;
18808;SDS011;9532;54.322;10.116;2022-12-11T01:42:52;4.30;;;3.20;;
18808;SDS011;9532;54.322;10.116;2022-12-11T01:45:25;4.20;;;3.10;;
18808;SDS011;9532;54.322;10.116;2022-12-11T01:48:00;6.17;;;3.17;;
18808;SDS011;9532;54.322;10.116;2022-12-11T01:50:30;4.13;;;3.00;;
18808;SDS011;9532;54.322;10.116;2022-12-11T01:53:01;4.00;;;3.20;;
18808;SDS011;9532;54.322;10.116;2022-12-11T01:55:32;3.77;;;3.03;;
18808;SDS011;9532;54.322;10.116;2022-12-11T01:57:59;4.20;;;3.20;;
18808;SDS011;9532;54.322;10.116;2022-12-11T02:00:30;4.60;;;3.60;;
18808;SDS011;9532;54.322;10.116;2022-12-11T02:02:57;5.57;;;3.27;;
18808;SDS011;9532;54.322;10.116;2022-12-11T02:05:24;4.43;;;3.30;;
18808;SDS011;9532;54.322;10.116;2022-12-11T02:07:52;4.03;;;3.30;;
18808;SDS011;9532;54.322;10.116;2022-12-11T02:10:22;4.10;;;3.20;;
18808;SDS011;9532;54.322;10.116;2022-12-11T02:12:56;4.30;;;3.33;;
18808;SDS011;9532;54.322;10.116;2022-12-11T02:15:31;4.50;;;3.47;;
18808;SDS011;9532;54.322;10.116;2022-12-11T02:18:06;4.33;;;3.17;;
18808;SDS011;9532;54.322;10.116;2022-12-11T02:20:42;4.43;;;3.50;;
18808;SDS011;9532;54.322;10.116;2022-12-11T02:23:20;4.73;;;3.40;;
18808;SDS011;9532;54.322;10.116;2022-12-11T02:25:57;4.20;;;3.20;;
18808;SDS011;9532;54.322;10.116;2022-12-11T02:28:39;3.57;;;3.20;;
18808;SDS011;9532;54.322;10.116;2022-12-11T02:31:12;3.53;;;3.00;;
18808;SDS011;9532;54.322;10.116;2022-12-11T02:33:44;3.60;;;3.03;;
18808;SDS011;9532;54.322;10.116;2022-12-11T02:36:15;4.17;;;2.73;;
18808;SDS011;9532;54.322;10.116;2022-12-11T02:38:44;3.67;;;3.10;;
18808;SDS011;9532;54.322;10.116;2022-12-11T02:41:16;4.37;;;3.30;;
18808;SDS011;9532;54.322;10.116;2022-12-11T02:43:47;5.20;;;3.50;;
18808;SDS011;9532;54.322;10.116;2022-12-11T02:46:17;3.50;;;2.90;;
18808;SDS011;9532;54.322;10.116;2022-12-11T02:48:47;4.27;;;3.20;;
18808;SDS011;9532;54.322;10.116;2022-12-11T02:51:17;3.60;;;3.10;;
18808;SDS011;9532;54.322;10.116;2022-12-11T02:53:47;4.47;;;3.20;;
18808;SDS011;9532;54.322;10.116;2022-12-11T02:56:21;4.00;;;3.10;;
18808;SDS011;9532;54.322;10.116;2022-12-11T02:58:54;4.20;;;3.37;;
18808;SDS011;9532;54.322;10.116;2022-12-11T03:01:25;4.20;;;3.33;;
18808;SDS011;9532;54.322;10.116;2022-12-11T03:03:53;3.87;;;3.10;;
18808;SDS011;9532;54.322;10.116;2022-12-11T03:06:22;3.90;;;3.20;;
18808;SDS011;9532;54.322;10.116;2022-12-11T03:08:53;4.67;;;3.60;;
18808;SDS011;9532;54.322;10.116;2022-12-11T03:11:20;4.23;;;3.30;;
18808;SDS011;9532;54.322;10.116;2022-12-11T03:13:47;4.33;;;3.30;;
18808;SDS011;9532;54.322;10.116;2022-12-11T03:16:18;3.70;;;3.23;;
18808;SDS011;9532;54.322;10.116;2022-12-11T03:18:57;3.53;;;3.00;;
18808;SDS011;9532;54.322;10.116;2022-12-11T03:21:32;4.90;;;3.70;;
18808;SDS011;9532;54.322;10.116;2022-12-11T03:24:04;4.50;;;3.70;;
18808;SDS011;9532;54.322;10.116;2022-12-11T03:26:36;4.47;;;3.23;;
18808;SDS011;9532;54.322;10.116;2022-12-11T03:29:09;3.73;;;3.07;;
18808;SDS011;9532;54.322;10.116;2022-12-11T03:31:45;4.30;;;3.50;;
18808;SDS011;9532;54.322;10.116;2022-12-11T03:34:21;4.23;;;3.60;;
18808;SDS011;9532;54.322;10.116;2022-12-11T03:36:53;5.53;;;3.53;;
18808;SDS011;9532;54.322;10.116;2022-12-11T03:39:24;3.60;;;3.07;;
18808;SDS011;9532;54.322;10.116;2022-12-11T03:41:54;4.53;;;3.37;;
18808;SDS011;9532;54.322;10.116;2022-12-11T03:44:22;5.07;;;3.50;;
18808;SDS011;9532;54.322;10.116;2022-12-11T03:46:53;4.10;;;3.20;;
18808;SDS011;9532;54.322;10.116;2022-12-11T03:49:23;3.80;;;3.20;;
18808;SDS011;9532;54.322;10.116;2022-12-11T03:51:55;4.53;;;3.70;;
18808;SDS011;9532;54.322;10.116;2022-12-11T03:54:25;4.27;;;3.40;;
18808;SDS011;9532;54.322;10.116;2022-12-11T03:56:54;4.07;;;3.57;;
18808;SDS011;9532;54.322;10.116;2022-12-11T03:59:23;4.27;;;3.30;;
18808;SDS011;9532;54.322;10.116;2022-12-11T04:01:50;3.90;;;3.37;;
18808;SDS011;9532;54.322;10.116;2022-12-11T04:04:19;3.87;;;3.27;;
18808;SDS011;9532;54.322;10.116;2022-12-11T04:06:47;4.37;;;3.70;;
18808;SDS011;9532;54.322;10.116;2022-12-11T04:09:14;4.53;;;3.80;;
18808;SDS011;9532;54.322;10.116;2022-12-11T04:11:41;4.60;;;3.40;;
18808;SDS011;9532;54.322;10.116;2022-12-11T04:14:09;4.20;;;3.60;;
18808;SDS011;9532;54.322;10.116;2022-12-11T04:16:57;4.53;;;3.37;;
18808;SDS011;9532;54.322;10.116;2022-12-11T04:19:25;4.57;;;3.40;;
18808;SDS011;9532;54.322;10.116;2022-12-11T04:22:10;4.43;;;3.33;;
18808;SDS011;9532;54.322;10.116;2022-12-11T04:24:55;4.73;;;3.57;;
18808;SDS011;9532;54.322;10.116;2022-12-11T04:27:22;3.60;;;3.10;;
18808;SDS011;9532;54.322;10.116;2022-12-11T04:30:08;4.00;;;3.20;;
18808;SDS011;9532;54.322;10.116;2022-12-11T04:32:39;4.70;;;3.57;;
18808;SDS011;9532;54.322;10.116;2022-12-11T04:35:07;3.90;;;3.40;;
18808;SDS011;9532;54.322;10.116;2022-12-11T04:37:35;4.07;;;3.23;;
18808;SDS011;9532;54.322;10.116;2022-12-11T04:40:03;4.67;;;3.60;;
18808;SDS011;9532;54.322;10.116;2022-12-11T04:42:30;4.30;;;3.40;;
18808;SDS011;9532;54.322;10.116;2022-12-11T04:44:57;4.23;;;3.50;;
18808;SDS011;9532;54.322;10.116;2022-12-11T04:47:24;4.40;;;3.47;;
18808;SDS011;9532;54.322;10.116;2022-12-11T04:49:53;3.73;;;3.23;;
18808;SDS011;9532;54.322;10.116;2022-12-11T04:52:21;4.20;;;3.17;;
18808;SDS011;9532;54.322;10.116;2022-12-11T04:54:48;4.20;;;3.40;;
18808;SDS011;9532;54.322;10.116;2022-12-11T04:57:15;3.70;;;3.00;;
18808;SDS011;9532;54.322;10.116;2022-12-11T04:59:44;4.70;;;3.67;;
18808;SDS011;9532;54.322;10.116;2022-12-11T05:02:12;4.23;;;3.47;;
18808;SDS011;9532;54.322;10.116;2022-12-11T05:04:39;3.90;;;3.40;;
18808;SDS011;9532;54.322;10.116;2022-12-11T05:07:08;4.73;;;3.50;;
18808;SDS011;9532;54.322;10.116;2022-12-11T05:09:36;4.43;;;3.40;;
18808;SDS011;9532;54.322;10.116;2022-12-11T05:12:03;4.53;;;3.60;;
18808;SDS011;9532;54.322;10.116;2022-12-11T05:14:30;4.10;;;3.37;;
18808;SDS011;9532;54.322;10.116;2022-12-11T05:16:58;4.33;;;3.37;;
18808;SDS011;9532;54.322;10.116;2022-12-11T05:19:25;3.60;;;3.20;;
18808;SDS011;9532;54.322;10.116;2022-12-11T05:21:52;3.63;;;3.17;;
18808;SDS011;9532;54.322;10.116;2022-12-11T05:24:21;3.80;;;3.20;;
18808;SDS011;9532;54.322;10.116;2022-12-11T05:26:49;3.90;;;3.30;;
18808;SDS011;9532;54.322;10.116;2022-12-11T05:29:16;3.83;;;2.93;;
18808;SDS011;9532;54.322;10.116;2022-12-11T05:31:43;5.20;;;3.80;;
18808;SDS011;9532;54.322;10.116;2022-12-11T05:34:10;3.53;;;3.07;;
18808;SDS011;9532;54.322;10.116;2022-12-11T05:36:37;4.20;;;3.70;;
18808;SDS011;9532;54.322;10.116;2022-12-11T05:39:04;4.00;;;3.40;;
18808;SDS011;9532;54.322;10.116;2022-12-11T05:41:35;4.63;;;3.20;;
18808;SDS011;9532;54.322;10.116;2022-12-11T05:44:02;4.27;;;3.30;;
18808;SDS011;9532;54.322;10.116;2022-12-11T05:46:29;5.03;;;3.53;;
18808;SDS011;9532;54.322;10.116;2022-12-11T05:48:57;4.30;;;3.30;;
18808;SDS011;9532;54.322;10.116;2022-12-11T05:51:26;4.17;;;3.20;;
18808;SDS011;9532;54.322;10.116;2022-12-11T05:53:55;3.83;;;3.20;;
18808;SDS011;9532;54.322;10.116;2022-12-11T05:56:24;3.83;;;3.03;;
18808;SDS011;9532;54.322;10.116;2022-12-11T05:58:54;3.80;;;2.90;;
18808;SDS011;9532;54.322;10.116;2022-12-11T06:01:23;3.97;;;3.10;;
18808;SDS011;9532;54.322;10.116;2022-12-11T06:03:51;4.97;;;3.40;;
18808;SDS011;9532;54.322;10.116;2022-12-11T06:06:19;4.60;;;3.20;;
18808;SDS011;9532;54.322;10.116;2022-12-11T06:08:48;4.40;;;3.50;;
18808;SDS011;9532;54.322;10.116;2022-12-11T06:11:16;3.53;;;2.87;;
18808;SDS011;9532;54.322;10.116;2022-12-11T06:13:43;3.93;;;3.10;;
18808;SDS011;9532;54.322;10.116;2022-12-11T06:16:12;4.03;;;3.40;;
18808;SDS011;9532;54.322;10.116;2022-12-11T06:18:40;3.63;;;3.10;;
18808;SDS011;9532;54.322;10.116;2022-12-11T06:21:10;3.90;;;3.10;;
18808;SDS011;9532;54.322;10.116;2022-12-11T06:23:39;3.90;;;3.23;;
18808;SDS011;9532;54.322;10.116;2022-12-11T06:26:06;4.43;;;3.43;;
18808;SDS011;9532;54.322;10.116;2022-12-11T06:28:34;4.00;;;2.67;;
18808;SDS011;9532;54.322;10.116;2022-12-11T06:31:01;3.47;;;2.77;;
18808;SDS011;9532;54.322;10.116;2022-12-11T06:33:31;4.77;;;3.20;;
18808;SDS011;9532;54.322;10.116;2022-12-11T06:36:00;3.70;;;2.87;;
18808;SDS011;9532;54.322;10.116;2022-12-11T06:38:27;4.00;;;3.13;;
18808;SDS011;9532;54.322;10.116;2022-12-11T06:40:55;3.63;;;3.13;;
18808;SDS011;9532;54.322;10.116;2022-12-11T06:43:22;4.00;;;3.30;;
18808;SDS011;9532;54.322;10.116;2022-12-11T06:45:50;3.87;;;3.20;;
18808;SDS011;9532;54.322;10.116;2022-12-11T06:48:18;4.47;;;3.50;;
18808;SDS011;9532;54.322;10.116;2022-12-11T06:50:47;4.10;;;3.00;;
18808;SDS011;9532;54.322;10.116;2022-12-11T06:53:14;4.40;;;3.30;;
18808;SDS011;9532;54.322;10.116;2022-12-11T06:55:41;3.63;;;3.00;;
18808;SDS011;9532;54.322;10.116;2022-12-11T06:58:09;4.87;;;3.40;;
18808;SDS011;9532;54.322;10.116;2022-12-11T07:00:37;3.77;;;3.10;;
18808;SDS011;9532;54.322;10.116;2022-12-11T07:03:04;3.63;;;2.93;;
18808;SDS011;9532;54.322;10.116;2022-12-11T07:05:32;3.67;;;3.00;;
18808;SDS011;9532;54.322;10.116;2022-12-11T07:08:01;4.10;;;3.17;;
18808;SDS011;9532;54.322;10.116;2022-12-11T07:10:28;5.50;;;3.13;;
18808;SDS011;9532;54.322;10.116;2022-12-11T07:12:55;3.87;;;3.20;;
18808;SDS011;9532;54.322;10.116;2022-12-11T07:15:23;3.93;;;3.27;;
18808;SDS011;9532;54.322;10.116;2022-12-11T07:17:50;3.33;;;2.90;;
18808;SDS011;9532;54.322;10.116;2022-12-11T07:20:17;3.33;;;2.87;;
18808;SDS011;9532;54.322;10.116;2022-12-11T07:22:44;4.33;;;3.50;;
18808;SDS011;9532;54.322;10.116;2022-12-11T07:25:13;3.60;;;3.00;;
18808;SDS011;9532;54.322;10.116;2022-12-11T07:27:41;3.90;;;3.27;;
18808;SDS011;9532;54.322;10.116;2022-12-11T07:30:08;5.33;;;3.10;;
18808;SDS011;9532;54.322;10.116;2022-12-11T07:32:36;3.40;;;2.83;;
18808;SDS011;9532;54.322;10.116;2022-12-11T07:35:03;4.73;;;3.27;;
18808;SDS011;9532;54.322;10.116;2022-12-11T07:37:31;4.47;;;3.27;;
18808;SDS011;9532;54.322;10.116;2022-12-11T07:39:58;4.43;;;3.30;;
18808;SDS011;9532;54.322;10.116;2022-12-11T07:42:27;5.37;;;3.03;;
18808;SDS011;9532;54.322;10.116;2022-12-11T07:44:54;4.73;;;3.20;;
18808;SDS011;9532;54.322;10.116;2022-12-11T07:47:21;6.17;;;3.20;;
18808;SDS011;9532;54.322;10.116;2022-12-11T07:49:48;4.30;;;3.30;;
18808;SDS011;9532;54.322;10.116;2022-12-11T07:52:15;5.43;;;3.10;;
18808;SDS011;9532;54.322;10.116;2022-12-11T07:54:43;4.77;;;3.30;;
18808;SDS011;9532;54.322;10.116;2022-12-11T07:57:10;3.67;;;2.90;;
18808;SDS011;9532;54.322;10.116;2022-12-11T07:59:38;5.27;;;2.70;;
18808;SDS011;9532;54.322;10.116;2022-12-11T08:02:07;6.00;;;3.10;;
18808;SDS011;9532;54.322;10.116;2022-12-11T08:04:35;3.63;;;2.97;;
18808;SDS011;9532;54.322;10.116;2022-12-11T08:07:03;6.20;;;2.77;;
18808;SDS011;9532;54.322;10.116;2022-12-11T08:09:31;3.33;;;2.87;;
18808;SDS011;9532;54.322;10.116;2022-12-11T08:11:58;4.33;;;3.10;;
18808;SDS011;9532;54.322;10.116;2022-12-11T08:14:25;7.03;;;3.23;;
18808;SDS011;9532;54.322;10.116;2022-12-11T08:16:54;6.70;;;3.00;;
18808;SDS011;9532;54.322;10.116;2022-12-11T08:19:22;3.93;;;3.00;;
18808;SDS011;9532;54.322;10.116;2022-12-11T08:21:51;6.27;;;3.20;;
18808;SDS011;9532;54.322;10.116;2022-12-11T08:24:19;5.10;;;2.70;;
18808;SDS011;9532;54.322;10.116;2022-12-11T08:26:46;5.07;;;2.87;;
18808;SDS011;9532;54.322;10.116;2022-12-11T08:29:13;4.57;;;3.07;;
18808;SDS011;9532;54.322;10.116;2022-12-11T08:31:40;4.87;;;3.17;;
18808;SDS011;9532;54.322;10.116;2022-12-11T08:34:09;6.23;;;3.23;;
18808;SDS011;9532;54.322;10.116;2022-12-11T08:36:38;5.20;;;2.90;;
18808;SDS011;9532;54.322;10.116;2022-12-11T08:39:05;3.53;;;2.63;;
18808;SDS011;9532;54.322;10.116;2022-12-11T08:41:32;4.40;;;2.97;;
18808;SDS011;9532;54.322;10.116;2022-12-11T08:44:00;7.67;;;2.87;;
18808;SDS011;9532;54.322;10.116;2022-12-11T08:46:29;6.87;;;3.50;;
18808;SDS011;9532;54.322;10.116;2022-12-11T08:48:57;14.40;;;3.30;;
18808;SDS011;9532;54.322;10.116;2022-12-11T08:51:27;7.90;;;3.10;;
18808;SDS011;9532;54.322;10.116;2022-12-11T08:53:56;10.73;;;3.63;;
18808;SDS011;9532;54.322;10.116;2022-12-11T08:56:25;4.30;;;3.10;;
18808;SDS011;9532;54.322;10.116;2022-12-11T08:58:53;7.23;;;3.10;;
18808;SDS011;9532;54.322;10.116;2022-12-11T09:01:22;6.27;;;3.17;;
18808;SDS011;9532;54.322;10.116;2022-12-11T09:03:50;6.97;;;2.90;;
18808;SDS011;9532;54.322;10.116;2022-12-11T09:06:19;11.57;;;3.63;;
18808;SDS011;9532;54.322;10.116;2022-12-11T09:08:49;4.83;;;2.80;;
18808;SDS011;9532;54.322;10.116;2022-12-11T09:11:18;5.87;;;3.00;;
18808;SDS011;9532;54.322;10.116;2022-12-11T09:13:47;6.83;;;2.90;;
18808;SDS011;9532;54.322;10.116;2022-12-11T09:16:14;8.80;;;2.77;;
18808;SDS011;9532;54.322;10.116;2022-12-11T09:18:44;5.87;;;3.47;;
18808;SDS011;9532;54.322;10.116;2022-12-11T09:21:13;7.80;;;2.67;;
18808;SDS011;9532;54.322;10.116;2022-12-11T09:23:42;7.97;;;2.93;;
18808;SDS011;9532;54.322;10.116;2022-12-11T09:26:12;12.80;;;2.90;;
18808;SDS011;9532;54.322;10.116;2022-12-11T09:28:40;9.50;;;3.00;;
18808;SDS011;9532;54.322;10.116;2022-12-11T09:31:09;9.37;;;2.80;;
18808;SDS011;9532;54.322;10.116;2022-12-11T09:33:37;15.80;;;8.60;;
18808;SDS011;9532;54.322;10.116;2022-12-11T09:36:05;18.70;;;6.57;;
18808;SDS011;9532;54.322;10.116;2022-12-11T09:38:33;11.43;;;5.73;;
18808;SDS011;9532;54.322;10.116;2022-12-11T09:41:00;9.70;;;4.97;;
18808;SDS011;9532;54.322;10.116;2022-12-11T09:43:38;9.67;;;4.40;;
18808;SDS011;9532;54.322;10.116;2022-12-11T09:46:13;15.17;;;3.83;;
18808;SDS011;9532;54.322;10.116;2022-12-11T09:48:42;8.50;;;3.53;;
18808;SDS011;9532;54.322;10.116;2022-12-11T09:51:13;8.33;;;3.20;;
18808;SDS011;9532;54.322;10.116;2022-12-11T09:53:44;6.57;;;3.53;;
18808;SDS011;9532;54.322;10.116;2022-12-11T09:56:15;14.77;;;3.50;;
18808;SDS011;9532;54.322;10.116;2022-12-11T09:58:52;7.20;;;3.20;;
18808;SDS011;9532;54.322;10.116;2022-12-11T10:01:25;4.80;;;3.00;;
18808;SDS011;9532;54.322;10.116;2022-12-11T10:04:02;7.50;;;2.80;;
18808;SDS011;9532;54.322;10.116;2022-12-11T10:06:42;10.17;;;3.37;;
18808;SDS011;9532;54.322;10.116;2022-12-11T10:09:16;5.53;;;2.70;;
18808;SDS011;9532;54.322;10.116;2022-12-11T10:11:53;20.90;;;2.90;;
18808;SDS011;9532;54.322;10.116;2022-12-11T10:14:34;9.47;;;3.03;;
18808;SDS011;9532;54.322;10.116;2022-12-11T10:17:15;10.73;;;3.00;;
18808;SDS011;9532;54.322;10.116;2022-12-11T10:19:46;51.83;;;18.87;;
18808;SDS011;9532;54.322;10.116;2022-12-11T10:22:17;27.70;;;11.47;;
18808;SDS011;9532;54.322;10.116;2022-12-11T10:24:50;23.47;;;9.10;;
18808;SDS011;9532;54.322;10.116;2022-12-11T10:27:23;26.23;;;8.77;;
18808;SDS011;9532;54.322;10.116;2022-12-11T10:30:00;15.67;;;6.80;;
18808;SDS011;9532;54.322;10.116;2022-12-11T10:32:36;24.13;;;6.70;;
18808;SDS011;9532;54.322;10.116;2022-12-11T10:35:16;15.13;;;5.60;;
18808;SDS011;9532;54.322;10.116;2022-12-11T10:37:46;10.20;;;5.07;;
18808;SDS011;9532;54.322;10.116;2022-12-11T10:40:13;11.03;;;4.50;;
18808;SDS011;9532;54.322;10.116;2022-12-11T10:42:50;13.13;;;4.57;;
18808;SDS011;9532;54.322;10.116;2022-12-11T10:45:21;10.97;;;4.10;;
18808;SDS011;9532;54.322;10.116;2022-12-11T10:47:49;11.47;;;4.37;;
18808;SDS011;9532;54.322;10.116;2022-12-11T10:50:27;11.77;;;4.23;;
18808;SDS011;9532;54.322;10.116;2022-12-11T10:52:54;12.37;;;4.20;;
18808;SDS011;9532;54.322;10.116;2022-12-11T10:55:23;7.70;;;3.57;;
18808;SDS011;9532;54.322;10.116;2022-12-11T10:57:53;13.10;;;3.57;;
18808;SDS011;9532;54.322;10.116;2022-12-11T11:03:18;8.70;;;3.13;;
18808;SDS011;9532;54.322;10.116;2022-12-11T11:05:48;9.00;;;3.77;;
18808;SDS011;9532;54.322;10.116;2022-12-11T11:08:17;8.27;;;3.50;;
18808;SDS011;9532;54.322;10.116;2022-12-11T11:10:53;7.93;;;3.50;;
18808;SDS011;9532;54.322;10.116;2022-12-11T11:13:22;10.30;;;4.00;;
18808;SDS011;9532;54.322;10.116;2022-12-11T11:15:58;8.20;;;3.40;;
18808;SDS011;9532;54.322;10.116;2022-12-11T11:18:26;5.40;;;2.93;;
18808;SDS011;9532;54.322;10.116;2022-12-11T11:20:55;26.80;;;11.90;;
18808;SDS011;9532;54.322;10.116;2022-12-11T11:23:23;12.87;;;8.67;;
18808;SDS011;9532;54.322;10.116;2022-12-11T11:25:51;13.83;;;7.50;;
18808;SDS011;9532;54.322;10.116;2022-12-11T11:28:21;11.00;;;6.67;;
18808;SDS011;9532;54.322;10.116;2022-12-11T11:30:55;13.67;;;5.97;;
18808;SDS011;9532;54.322;10.116;2022-12-11T11:33:27;11.00;;;5.80;;
18808;SDS011;9532;54.322;10.116;2022-12-11T11:35:56;15.33;;;5.90;;
18808;SDS011;9532;54.322;10.116;2022-12-11T11:38:25;11.43;;;5.20;;
18808;SDS011;9532;54.322;10.116;2022-12-11T11:40:57;10.63;;;4.93;;
18808;SDS011;9532;54.322;10.116;2022-12-11T11:43:35;12.80;;;5.50;;
18808;SDS011;9532;54.322;10.116;2022-12-11T11:46:09;8.57;;;5.07;;
18808;SDS011;9532;54.322;10.116;2022-12-11T11:48:43;12.13;;;4.33;;
18808;SDS011;9532;54.322;10.116;2022-12-11T11:51:18;10.13;;;4.40;;
18808;SDS011;9532;54.322;10.116;2022-12-11T11:53:50;12.17;;;4.87;;
18808;SDS011;9532;54.322;10.116;2022-12-11T11:56:22;10.27;;;4.57;;
18808;SDS011;9532;54.322;10.116;2022-12-11T11:58:58;14.70;;;4.27;;
18808;SDS011;9532;54.322;10.116;2022-12-11T12:01:30;8.50;;;3.60;;
18808;SDS011;9532;54.322;10.116;2022-12-11T12:03:57;7.00;;;3.80;;
18808;SDS011;9532;54.322;10.116;2022-12-11T12:06:37;8.20;;;3.73;;
18808;SDS011;9532;54.322;10.116;2022-12-11T12:09:28;10.23;;;3.80;;
18808;SDS011;9532;54.322;10.116;2022-12-11T12:12:09;7.47;;;3.87;;
18808;SDS011;9532;54.322;10.116;2022-12-11T12:14:44;10.07;;;4.70;;
18808;SDS011;9532;54.322;10.116;2022-12-11T12:17:29;14.63;;;4.63;;
18808;SDS011;9532;54.322;10.116;2022-12-11T12:20:09;11.63;;;4.27;;
18808;SDS011;9532;54.322;10.116;2022-12-11T12:22:48;12.97;;;4.60;;
18808;SDS011;9532;54.322;10.116;2022-12-11T12:25:24;9.70;;;5.00;;
18808;SDS011;9532;54.322;10.116;2022-12-11T12:27:57;11.20;;;4.50;;
18808;SDS011;9532;54.322;10.116;2022-12-11T12:30:35;8.40;;;4.63;;
18808;SDS011;9532;54.322;10.116;2022-12-11T12:33:17;11.83;;;4.80;;
18808;SDS011;9532;54.322;10.116;2022-12-11T12:35:54;6.50;;;4.40;;
18808;SDS011;9532;54.322;10.116;2022-12-11T12:38:30;9.87;;;4.53;;
18808;SDS011;9532;54.322;10.116;2022-12-11T12:41:05;17.97;;;5.53;;
18808;SDS011;9532;54.322;10.116;2022-12-11T12:43:52;11.03;;;5.53;;
18808;SDS011;9532;54.322;10.116;2022-12-11T12:49:26;11.00;;;5.07;;
18808;SDS011;9532;54.322;10.116;2022-12-11T12:51:58;13.90;;;5.40;;
18808;SDS011;9532;54.322;10.116;2022-12-11T12:54:26;12.70;;;4.87;;
18808;SDS011;9532;54.322;10.116;2022-12-11T12:56:55;20.90;;;5.00;;
18808;SDS011;9532;54.322;10.116;2022-12-11T12:59:25;17.17;;;4.80;;
18808;SDS011;9532;54.322;10.116;2022-12-11T13:01:55;14.93;;;5.13;;
18808;SDS011;9532;54.322;10.116;2022-12-11T13:04:28;17.97;;;5.03;;
18808;SDS011;9532;54.322;10.116;2022-12-11T13:07:11;16.60;;;5.00;;
18808;SDS011;9532;54.322;10.116;2022-12-11T13:09:53;16.87;;;7.03;;
18808;SDS011;9532;54.322;10.116;2022-12-11T13:12:30;14.27;;;6.30;;
18808;SDS011;9532;54.322;10.116;2022-12-11T13:17:55;13.50;;;5.83;;
18808;SDS011;9532;54.322;10.116;2022-12-11T13:20:26;19.20;;;5.63;;
18808;SDS011;9532;54.322;10.116;2022-12-11T13:25:53;15.33;;;5.40;;
18808;SDS011;9532;54.322;10.116;2022-12-11T13:28:23;18.40;;;6.07;;
18808;SDS011;9532;54.322;10.116;2022-12-11T13:31:03;19.13;;;6.13;;
18808;SDS011;9532;54.322;10.116;2022-12-11T13:33:37;19.30;;;5.47;;
18808;SDS011;9532;54.322;10.116;2022-12-11T13:38:58;17.53;;;5.47;;
18808;SDS011;9532;54.322;10.116;2022-12-11T13:41:31;18.07;;;4.87;;
18808;SDS011;9532;54.322;10.116;2022-12-11T13:44:02;12.97;;;5.00;;
18808;SDS011;9532;54.322;10.116;2022-12-11T13:46:33;11.63;;;5.10;;
18808;SDS011;9532;54.322;10.116;2022-12-11T13:49:02;15.50;;;4.70;;
18808;SDS011;9532;54.322;10.116;2022-12-11T13:51:33;20.27;;;4.77;;
18808;SDS011;9532;54.322;10.116;2022-12-11T13:54:05;14.80;;;4.47;;
18808;SDS011;9532;54.322;10.116;2022-12-11T13:59:41;16.83;;;4.43;;
18808;SDS011;9532;54.322;10.116;2022-12-11T14:02:14;8.70;;;4.40;;
18808;SDS011;9532;54.322;10.116;2022-12-11T14:04:48;14.77;;;4.27;;
18808;SDS011;9532;54.322;10.116;2022-12-11T14:07:21;10.70;;;4.17;;
18808;SDS011;9532;54.322;10.116;2022-12-11T14:09:54;10.00;;;4.40;;
18808;SDS011;9532;54.322;10.116;2022-12-11T14:12:26;10.03;;;4.20;;
18808;SDS011;9532;54.322;10.116;2022-12-11T14:14:55;18.33;;;5.10;;
18808;SDS011;9532;54.322;10.116;2022-12-11T14:17:27;8.13;;;4.30;;
18808;SDS011;9532;54.322;10.116;2022-12-11T14:19:56;9.87;;;4.27;;
18808;SDS011;9532;54.322;10.116;2022-12-11T14:22:28;18.33;;;5.23;;
18808;SDS011;9532;54.322;10.116;2022-12-11T14:24:57;11.77;;;4.53;;
18808;SDS011;9532;54.322;10.116;2022-12-11T14:27:28;7.40;;;4.13;;
18808;SDS011;9532;54.322;10.116;2022-12-11T14:29:55;12.07;;;4.97;;
18808;SDS011;9532;54.322;10.116;2022-12-11T14:32:25;13.60;;;4.53;;
18808;SDS011;9532;54.322;10.116;2022-12-11T14:34:56;9.10;;;4.57;;
18808;SDS011;9532;54.322;10.116;2022-12-11T14:37:25;15.90;;;4.87;;
18808;SDS011;9532;54.322;10.116;2022-12-11T14:39:57;13.30;;;4.97;;
18808;SDS011;9532;54.322;10.116;2022-12-11T14:42:26;12.30;;;4.27;;
18808;SDS011;9532;54.322;10.116;2022-12-11T14:44:58;10.67;;;4.83;;
18808;SDS011;9532;54.322;10.116;2022-12-11T14:47:33;10.10;;;4.63;;
18808;SDS011;9532;54.322;10.116;2022-12-11T14:50:07;9.87;;;4.67;;
18808;SDS011;9532;54.322;10.116;2022-12-11T14:52:44;9.83;;;4.47;;
18808;SDS011;9532;54.322;10.116;2022-12-11T14:55:17;11.93;;;4.33;;
18808;SDS011;9532;54.322;10.116;2022-12-11T14:57:49;12.70;;;4.77;;
18808;SDS011;9532;54.322;10.116;2022-12-11T15:00:21;14.50;;;4.50;;
18808;SDS011;9532;54.322;10.116;2022-12-11T15:02:56;14.23;;;5.27;;
18808;SDS011;9532;54.322;10.116;2022-12-11T15:05:24;9.17;;;4.70;;
18808;SDS011;9532;54.322;10.116;2022-12-11T15:07:53;13.90;;;4.60;;
18808;SDS011;9532;54.322;10.116;2022-12-11T15:10:27;12.87;;;4.80;;
18808;SDS011;9532;54.322;10.116;2022-12-11T15:13:00;13.23;;;4.70;;
18808;SDS011;9532;54.322;10.116;2022-12-11T15:15:27;11.33;;;4.63;;
18808;SDS011;9532;54.322;10.116;2022-12-11T15:17:57;10.77;;;4.43;;
18808;SDS011;9532;54.322;10.116;2022-12-11T15:20:25;12.80;;;4.33;;